createdAt,value
2018-08-19T00:00:42.008Z,0.00
2018-08-19T00:01:42.423Z,0.00
2018-08-19T00:02:42.782Z,0.00
2018-08-19T00:03:43.010Z,0.00
2018-08-19T00:04:43.272Z,0.00
2018-08-19T00:05:44.046Z,0.00
2018-08-19T00:06:44.361Z,0.00
2018-08-19T00:07:44.696Z,0.00
2018-08-19T00:08:45.384Z,0.00
2018-08-19T00:09:45.743Z,0.00
2018-08-19T00:10:46.103Z,0.00
2018-08-19T00:11:46.710Z,0.00
2018-08-19T00:12:47.018Z,0.00
2018-08-19T00:13:47.364Z,0.00
2018-08-19T00:14:47.744Z,0.00
2018-08-19T00:15:48.130Z,0.00
2018-08-19T00:16:48.487Z,0.00
2018-08-19T00:17:48.841Z,0.00
2018-08-19T00:18:49.196Z,0.00
2018-08-19T00:19:49.519Z,0.00
2018-08-19T00:20:49.823Z,0.00
2018-08-19T00:21:50.386Z,0.00
2018-08-19T00:22:49.597Z,0.00
2018-08-19T00:23:51.492Z,0.00
2018-08-19T00:24:51.896Z,0.00
2018-08-19T00:25:52.533Z,0.00
2018-08-19T00:26:52.831Z,0.00
2018-08-19T00:27:53.153Z,0.00
2018-08-19T00:28:53.420Z,0.00
2018-08-19T00:29:53.721Z,0.00
2018-08-19T00:30:54.116Z,0.00
2018-08-19T00:31:54.660Z,0.00
2018-08-19T00:32:55.028Z,0.00
2018-08-19T00:33:55.430Z,0.00
2018-08-19T00:34:55.851Z,0.00
2018-08-19T00:35:56.177Z,0.00
2018-08-19T00:36:56.537Z,0.00
2018-08-19T00:37:56.944Z,0.00
2018-08-19T00:38:05.816Z,0.00
2018-08-19T00:39:06.965Z,0.00
2018-08-19T00:40:07.425Z,0.00
2018-08-19T00:41:08.292Z,0.00
2018-08-19T00:42:08.769Z,0.00
2018-08-19T00:43:09.170Z,0.00
2018-08-19T00:44:09.595Z,0.00
2018-08-19T00:45:08.997Z,0.00
2018-08-19T00:46:10.955Z,0.00
2018-08-19T00:47:11.364Z,0.00
2018-08-19T00:48:11.946Z,0.00
2018-08-19T00:49:12.333Z,0.00
2018-08-19T00:50:14.637Z,0.00
2018-08-19T00:51:13.034Z,0.00
2018-08-19T00:52:13.820Z,0.00
2018-08-19T00:53:14.199Z,0.00
2018-08-19T00:54:14.458Z,0.00
2018-08-19T00:55:14.797Z,0.00
2018-08-19T00:56:15.104Z,0.00
2018-08-19T00:57:15.520Z,0.00
2018-08-19T00:58:16.010Z,0.00
2018-08-19T00:59:16.402Z,0.00
2018-08-19T01:00:16.718Z,0.00
2018-08-19T01:01:17.282Z,0.00
2018-08-19T01:02:17.610Z,0.00
2018-08-19T01:03:17.849Z,0.00
2018-08-19T01:04:18.023Z,0.00
2018-08-19T01:05:18.451Z,0.00
2018-08-19T01:06:18.956Z,0.00
2018-08-19T01:07:19.368Z,0.00
2018-08-19T01:08:20.257Z,0.00
2018-08-19T01:09:20.993Z,0.00
2018-08-19T01:10:21.277Z,0.00
2018-08-19T01:11:21.607Z,0.00
2018-08-19T01:12:21.936Z,0.00
2018-08-19T01:13:22.254Z,0.00
2018-08-19T01:14:22.345Z,0.00
2018-08-19T01:15:22.542Z,0.00
2018-08-19T01:16:23.525Z,0.00
2018-08-19T01:17:23.970Z,0.00
2018-08-19T01:18:24.390Z,0.00
2018-08-19T01:19:24.751Z,0.00
2018-08-19T01:20:25.036Z,0.00
2018-08-19T01:21:25.320Z,0.00
2018-08-19T01:22:25.664Z,0.00
2018-08-19T01:23:26.138Z,0.00
2018-08-19T01:23:34.205Z,0.00
2018-08-19T01:24:35.538Z,0.00
2018-08-19T01:25:35.835Z,0.00
2018-08-19T01:26:35.862Z,0.00
2018-08-19T01:27:36.163Z,0.00
2018-08-19T01:28:36.536Z,0.00
2018-08-19T01:29:36.847Z,0.00
2018-08-19T01:30:37.340Z,0.00
2018-08-19T01:31:37.622Z,0.00
2018-08-19T01:32:37.973Z,0.00
2018-08-19T01:33:38.267Z,0.00
2018-08-19T01:34:38.589Z,0.00
2018-08-19T01:35:38.943Z,0.00
2018-08-19T01:36:39.246Z,0.00
2018-08-19T01:37:39.493Z,0.00
2018-08-19T01:38:38.855Z,0.00
2018-08-19T01:39:40.389Z,0.00
2018-08-19T01:40:41.322Z,0.00
2018-08-19T01:41:40.655Z,0.00
2018-08-19T01:42:42.031Z,0.00
2018-08-19T01:43:42.890Z,0.00
2018-08-19T01:44:43.122Z,0.00
2018-08-19T01:45:43.473Z,0.00
2018-08-19T01:46:44.054Z,0.00
2018-08-19T01:47:44.281Z,0.00
2018-08-19T01:48:44.572Z,0.00
2018-08-19T01:49:44.869Z,0.00
2018-08-19T01:50:45.149Z,0.00
2018-08-19T01:51:45.585Z,0.00
2018-08-19T01:52:45.945Z,0.00
2018-08-19T01:53:46.584Z,0.00
2018-08-19T01:54:46.982Z,0.00
2018-08-19T01:55:47.393Z,0.00
2018-08-19T01:56:48.339Z,0.00
2018-08-19T01:57:48.874Z,0.00
2018-08-19T01:58:49.489Z,0.00
2018-08-19T01:59:50.589Z,0.00
2018-08-19T02:00:50.831Z,0.00
2018-08-19T02:01:51.115Z,0.00
2018-08-19T02:02:51.394Z,0.00
2018-08-19T02:03:51.723Z,0.00
2018-08-19T02:04:52.073Z,0.00
2018-08-19T02:05:52.360Z,0.00
2018-08-19T02:06:52.676Z,0.00
2018-08-19T02:07:52.935Z,0.00
2018-08-19T02:08:53.496Z,0.00
2018-08-19T02:09:02.184Z,0.00
2018-08-19T02:10:02.819Z,0.00
2018-08-19T02:11:03.149Z,0.00
2018-08-19T02:12:03.581Z,0.00
2018-08-19T02:13:04.156Z,0.00
2018-08-19T02:14:04.696Z,0.00
2018-08-19T02:15:05.601Z,0.00
2018-08-19T02:16:06.124Z,0.00
2018-08-19T02:17:06.396Z,0.00
2018-08-19T02:18:06.688Z,0.00
2018-08-19T02:19:07.046Z,0.00
2018-08-19T02:20:07.298Z,0.00
2018-08-19T02:21:08.232Z,0.00
2018-08-19T02:22:08.469Z,0.00
2018-08-19T02:23:08.802Z,0.00
2018-08-19T02:24:09.600Z,0.00
2018-08-19T02:25:10.130Z,0.00
2018-08-19T02:26:10.497Z,0.00
2018-08-19T02:27:10.836Z,0.00
2018-08-19T02:28:11.820Z,0.00
2018-08-19T02:29:12.090Z,0.00
2018-08-19T02:30:12.558Z,0.00
2018-08-19T02:31:12.908Z,0.00
2018-08-19T02:32:13.139Z,0.00
2018-08-19T02:33:13.790Z,0.00
2018-08-19T02:34:14.155Z,0.00
2018-08-19T02:35:14.527Z,0.00
2018-08-19T02:36:14.804Z,0.00
2018-08-19T02:37:15.125Z,0.00
2018-08-19T02:38:15.757Z,0.00
2018-08-19T02:39:16.059Z,0.00
2018-08-19T02:40:16.389Z,0.00
2018-08-19T02:41:16.811Z,0.00
2018-08-19T02:42:17.067Z,0.00
2018-08-19T02:43:17.371Z,0.00
2018-08-19T02:44:17.766Z,0.00
2018-08-19T02:45:18.075Z,0.00
2018-08-19T02:46:18.381Z,0.00
2018-08-19T02:47:19.322Z,0.00
2018-08-19T02:48:20.030Z,0.00
2018-08-19T02:49:20.341Z,0.00
2018-08-19T02:50:20.718Z,0.00
2018-08-19T02:51:20.975Z,0.00
2018-08-19T02:52:21.260Z,0.00
2018-08-19T02:53:21.684Z,0.00
2018-08-19T02:53:31.657Z,0.00
2018-08-19T02:54:31.915Z,0.00
2018-08-19T02:55:33.163Z,0.00
2018-08-19T02:56:33.612Z,0.00
2018-08-19T02:57:33.930Z,0.00
2018-08-19T02:58:34.307Z,0.00
2018-08-19T02:59:34.578Z,0.00
2018-08-19T03:00:34.982Z,0.00
2018-08-19T03:01:35.432Z,0.00
2018-08-19T03:02:35.796Z,0.00
2018-08-19T03:03:36.681Z,0.00
2018-08-19T03:04:37.138Z,0.00
2018-08-19T03:05:37.452Z,0.00
2018-08-19T03:06:37.459Z,0.00
2018-08-19T03:07:39.037Z,0.00
2018-08-19T03:08:38.427Z,0.00
2018-08-19T03:09:38.731Z,0.00
2018-08-19T03:10:38.980Z,0.00
2018-08-19T03:11:39.377Z,0.00
2018-08-19T03:12:39.612Z,0.00
2018-08-19T03:13:39.822Z,0.00
2018-08-19T03:14:40.745Z,0.00
2018-08-19T03:15:40.976Z,0.00
2018-08-19T03:16:41.272Z,0.00
2018-08-19T03:17:41.570Z,0.00
2018-08-19T03:18:42.415Z,0.00
2018-08-19T03:19:42.661Z,0.00
2018-08-19T03:20:43.065Z,0.00
2018-08-19T03:21:43.703Z,0.00
2018-08-19T03:22:44.577Z,0.00
2018-08-19T03:23:44.862Z,0.00
2018-08-19T03:24:45.115Z,0.00
2018-08-19T03:25:45.451Z,0.00
2018-08-19T03:26:45.732Z,0.05
2018-08-19T03:27:45.964Z,0.05
2018-08-19T03:28:46.253Z,0.05
2018-08-19T03:29:46.709Z,0.05
2018-08-19T03:30:46.931Z,0.05
2018-08-19T03:31:46.986Z,0.05
2018-08-19T03:32:47.220Z,0.05
2018-08-19T03:33:47.540Z,0.05
2018-08-19T03:34:48.096Z,0.09
2018-08-19T03:35:48.310Z,0.09
2018-08-19T03:36:02.415Z,0.09
2018-08-19T03:37:03.617Z,0.14
2018-08-19T03:38:03.947Z,0.18
2018-08-19T03:39:03.100Z,0.18
2018-08-19T03:40:04.326Z,0.22
2018-08-19T03:41:04.538Z,0.27
2018-08-19T03:42:04.778Z,0.27
2018-08-19T03:43:05.602Z,0.36
2018-08-19T03:44:05.855Z,0.41
2018-08-19T03:45:06.602Z,0.50
2018-08-19T03:46:06.916Z,0.58
2018-08-19T03:47:07.181Z,0.68
2018-08-19T03:48:07.437Z,0.81
2018-08-19T03:49:07.713Z,0.99
2018-08-19T03:50:07.975Z,1.17
2018-08-19T03:51:08.217Z,1.39
2018-08-19T03:52:08.491Z,1.62
2018-08-19T03:53:08.858Z,1.89
2018-08-19T03:54:09.691Z,2.25
2018-08-19T03:55:10.332Z,2.70
2018-08-19T03:56:10.833Z,3.24
2018-08-19T03:57:11.126Z,3.78
2018-08-19T03:58:11.365Z,4.55
2018-08-19T03:59:11.696Z,5.49
2018-08-19T04:00:12.983Z,6.48
2018-08-19T04:01:12.307Z,7.70
2018-08-19T04:02:12.595Z,9.14
2018-08-19T04:03:13.037Z,10.89
2018-08-19T04:04:13.308Z,12.87
2018-08-19T04:05:13.697Z,15.30
2018-08-19T04:06:14.031Z,18.09
2018-08-19T04:07:14.274Z,21.15
2018-08-19T04:08:14.664Z,24.66
2018-08-19T04:09:13.813Z,28.80
2018-08-19T04:10:15.103Z,33.48
2018-08-19T04:11:15.362Z,38.88
2018-08-19T04:12:16.081Z,44.64
2018-08-19T04:13:16.409Z,51.12
2018-08-19T04:14:16.679Z,58.68
2018-08-19T04:15:16.934Z,67.32
2018-08-19T04:16:17.404Z,77.04
2018-08-19T04:17:17.758Z,87.84
2018-08-19T04:18:18.683Z,99.36
2018-08-19T04:19:18.950Z,111.60
2018-08-19T04:20:19.237Z,124.56
2018-08-19T04:20:27.918Z,126.72
2018-08-19T04:21:28.560Z,141.12
2018-08-19T04:22:29.120Z,155.52
2018-08-19T04:23:29.367Z,171.36
2018-08-19T04:24:29.641Z,187.20
2018-08-19T04:25:29.827Z,205.92
2018-08-19T04:26:30.068Z,226.08
2018-08-19T04:27:30.292Z,246.24
2018-08-19T04:28:30.639Z,267.84
2018-08-19T04:29:30.890Z,289.44
2018-08-19T04:30:31.242Z,313.92
2018-08-19T04:31:30.448Z,338.40
2018-08-19T04:32:31.716Z,362.88
2018-08-19T04:33:32.387Z,385.92
2018-08-19T04:34:32.822Z,411.84
2018-08-19T04:35:33.049Z,440.64
2018-08-19T04:36:33.271Z,466.56
2018-08-19T04:37:33.532Z,498.24
2018-08-19T04:38:34.034Z,529.92
2018-08-19T04:39:34.332Z,558.72
2018-08-19T04:40:34.586Z,590.40
2018-08-19T04:41:34.817Z,619.20
2018-08-19T04:42:35.091Z,650.88
2018-08-19T04:43:35.448Z,679.68
2018-08-19T04:44:36.127Z,708.48
2018-08-19T04:45:37.224Z,737.28
2018-08-19T04:46:36.492Z,771.84
2018-08-19T04:47:36.778Z,806.40
2018-08-19T04:48:37.057Z,840.96
2018-08-19T04:49:37.387Z,875.52
2018-08-19T04:50:37.709Z,910.08
2018-08-19T04:51:38.125Z,938.88
2018-08-19T04:52:38.382Z,973.44
2018-08-19T04:53:38.653Z,1008.00
2018-08-19T04:54:38.930Z,1088.64
2018-08-19T04:55:39.257Z,1140.48
2018-08-19T04:56:39.536Z,1192.32
2018-08-19T04:57:39.812Z,1238.40
2018-08-19T04:58:40.054Z,1284.48
2018-08-19T04:59:40.267Z,1319.04
2018-08-19T05:00:40.628Z,1359.36
2018-08-19T05:01:40.880Z,1399.68
2018-08-19T05:02:41.338Z,1434.24
2018-08-19T05:03:41.781Z,1468.80
2018-08-19T05:04:41.075Z,1497.60
2018-08-19T05:05:42.379Z,1520.64
2018-08-19T05:06:42.862Z,1543.68
2018-08-19T05:07:42.169Z,1566.72
2018-08-19T05:07:50.940Z,1566.72
2018-08-19T05:08:51.089Z,1578.24
2018-08-19T05:09:52.315Z,1612.80
2018-08-19T05:10:52.563Z,1647.36
2018-08-19T05:11:52.808Z,1693.44
2018-08-19T05:12:53.020Z,1751.04
2018-08-19T05:13:53.860Z,1808.64
2018-08-19T05:14:53.054Z,1843.20
2018-08-19T05:15:53.324Z,1889.28
2018-08-19T05:16:55.058Z,1923.84
2018-08-19T05:17:55.304Z,1958.40
2018-08-19T05:18:55.667Z,2004.48
2018-08-19T05:19:55.953Z,2039.04
2018-08-19T05:20:56.225Z,2073.60
2018-08-19T05:21:56.604Z,2119.68
2018-08-19T05:22:56.933Z,2154.24
2018-08-19T05:23:57.185Z,2280.96
2018-08-19T05:24:57.443Z,2649.60
2018-08-19T05:25:58.043Z,3041.28
2018-08-19T05:26:58.292Z,3594.24
2018-08-19T05:27:58.716Z,3939.84
2018-08-19T05:28:58.985Z,3985.92
2018-08-19T05:29:59.219Z,3870.72
2018-08-19T05:30:58.562Z,3893.76
2018-08-19T05:31:59.824Z,3985.92
2018-08-19T05:33:00.134Z,4055.04
2018-08-19T05:34:00.473Z,4193.28
2018-08-19T05:35:00.800Z,4354.56
2018-08-19T05:36:01.082Z,4354.56
2018-08-19T05:37:01.481Z,4331.52
2018-08-19T05:38:01.861Z,4377.60
2018-08-19T05:39:01.271Z,4423.68
2018-08-19T05:40:02.480Z,4377.60
2018-08-19T05:41:02.691Z,4354.56
2018-08-19T05:42:02.944Z,4400.64
2018-08-19T05:43:03.207Z,4492.80
2018-08-19T05:44:03.494Z,5160.96
2018-08-19T05:45:04.385Z,6128.64
2018-08-19T05:46:04.691Z,6589.44
2018-08-19T05:47:05.066Z,7004.16
2018-08-19T05:48:04.891Z,7649.28
2018-08-19T05:49:06.499Z,8064.00
2018-08-19T05:50:07.018Z,7142.40
2018-08-19T05:51:07.250Z,6497.28
2018-08-19T05:52:07.540Z,6220.80
2018-08-19T05:53:07.779Z,6220.80
2018-08-19T05:54:08.368Z,6128.64
2018-08-19T05:55:07.784Z,6082.56
2018-08-19T05:56:09.124Z,6082.56
2018-08-19T05:56:17.958Z,6036.48
2018-08-19T05:57:19.131Z,6082.56
2018-08-19T05:58:19.956Z,6359.04
2018-08-19T05:59:20.275Z,6543.36
2018-08-19T06:00:20.611Z,6773.76
2018-08-19T06:01:20.798Z,6912.00
2018-08-19T06:02:21.088Z,7004.16
2018-08-19T06:03:21.321Z,6912.00
2018-08-19T06:04:21.594Z,7004.16
2018-08-19T06:05:20.828Z,7603.20
2018-08-19T06:06:22.265Z,8156.16
2018-08-19T06:07:22.605Z,8524.80
2018-08-19T06:08:23.368Z,8801.28
2018-08-19T06:09:23.743Z,8755.20
2018-08-19T06:10:24.002Z,8755.20
2018-08-19T06:11:24.552Z,8386.56
2018-08-19T06:12:25.314Z,8202.24
2018-08-19T06:13:25.666Z,8294.40
2018-08-19T06:14:25.912Z,8478.72
2018-08-19T06:15:26.140Z,9077.76
2018-08-19T06:16:26.386Z,9354.24
2018-08-19T06:17:26.955Z,9584.64
2018-08-19T06:18:27.285Z,9861.12
2018-08-19T06:19:27.523Z,10552.32
2018-08-19T06:20:27.852Z,11059.20
2018-08-19T06:21:28.103Z,10736.64
2018-08-19T06:22:28.932Z,10414.08
2018-08-19T06:23:29.199Z,10598.40
2018-08-19T06:24:29.902Z,10874.88
2018-08-19T06:25:30.344Z,10690.56
2018-08-19T06:26:30.807Z,10506.24
2018-08-19T06:27:30.998Z,10690.56
2018-08-19T06:28:31.297Z,11151.36
2018-08-19T06:29:31.869Z,12349.44
2018-08-19T06:30:32.133Z,13639.68
2018-08-19T06:31:32.856Z,14284.80
2018-08-19T06:32:33.196Z,14469.12
2018-08-19T06:33:33.622Z,14653.44
2018-08-19T06:34:34.030Z,14284.80
2018-08-19T06:35:33.242Z,14376.96
2018-08-19T06:36:34.585Z,14837.76
2018-08-19T06:37:33.751Z,14929.92
2018-08-19T06:38:35.011Z,14100.48
2018-08-19T06:39:35.307Z,14192.64
2018-08-19T06:40:35.612Z,14653.44
2018-08-19T06:41:35.899Z,14561.28
2018-08-19T06:42:36.125Z,14192.64
2018-08-19T06:43:36.485Z,13824.00
2018-08-19T06:43:45.235Z,13824.00
2018-08-19T06:44:46.433Z,14100.48
2018-08-19T06:45:46.955Z,14192.64
2018-08-19T06:46:47.177Z,14100.48
2018-08-19T06:47:46.468Z,14192.64
2018-08-19T06:48:47.680Z,14469.12
2018-08-19T06:49:47.918Z,14469.12
2018-08-19T06:50:48.264Z,14745.60
2018-08-19T06:51:48.688Z,15575.04
2018-08-19T06:52:49.476Z,16220.16
2018-08-19T06:53:49.845Z,15759.36
2018-08-19T06:54:50.201Z,15298.56
2018-08-19T06:55:50.511Z,15482.88
2018-08-19T06:56:50.770Z,16312.32
2018-08-19T06:57:51.029Z,16957.44
2018-08-19T06:58:51.273Z,17233.92
2018-08-19T06:59:51.531Z,17326.08
2018-08-19T07:00:51.767Z,17418.24
2018-08-19T07:01:52.036Z,17602.56
2018-08-19T07:02:52.422Z,18247.68
2018-08-19T07:03:52.931Z,18892.80
2018-08-19T07:04:52.194Z,19169.28
2018-08-19T07:05:53.533Z,19261.44
2018-08-19T07:06:53.939Z,19537.92
2018-08-19T07:07:54.277Z,20275.20
2018-08-19T07:08:54.692Z,20275.20
2018-08-19T07:09:55.118Z,20090.88
2018-08-19T07:10:55.471Z,20275.20
2018-08-19T07:11:55.910Z,21012.48
2018-08-19T07:12:55.381Z,21288.96
2018-08-19T07:13:56.709Z,21288.96
2018-08-19T07:14:55.982Z,21196.80
2018-08-19T07:15:57.275Z,21288.96
2018-08-19T07:16:57.813Z,21657.60
2018-08-19T07:17:58.810Z,22118.40
2018-08-19T07:18:59.799Z,22579.20
2018-08-19T07:20:00.515Z,22671.36
2018-08-19T07:20:59.906Z,22210.56
2018-08-19T07:22:01.190Z,22026.24
2018-08-19T07:23:01.436Z,21934.08
2018-08-19T07:24:01.755Z,21934.08
2018-08-19T07:25:02.031Z,21841.92
2018-08-19T07:26:02.380Z,22210.56
2018-08-19T07:27:02.664Z,22487.04
2018-08-19T07:28:02.943Z,21565.44
2018-08-19T07:29:03.015Z,20183.04
2018-08-19T07:30:03.463Z,19630.08
2018-08-19T07:31:02.745Z,19537.92
2018-08-19T07:32:03.994Z,19445.76
2018-08-19T07:33:04.633Z,19445.76
2018-08-19T07:33:13.341Z,19445.76
2018-08-19T07:34:13.722Z,19445.76
2018-08-19T07:35:13.975Z,19814.40
2018-08-19T07:36:14.691Z,19998.72
2018-08-19T07:37:15.069Z,19998.72
2018-08-19T07:38:14.275Z,19998.72
2018-08-19T07:39:15.549Z,19998.72
2018-08-19T07:40:15.853Z,20459.52
2018-08-19T07:41:16.272Z,21012.48
2018-08-19T07:42:16.631Z,21473.28
2018-08-19T07:43:15.811Z,21841.92
2018-08-19T07:44:17.100Z,22118.40
2018-08-19T07:45:17.338Z,22302.72
2018-08-19T07:46:17.648Z,22026.24
2018-08-19T07:47:18.253Z,21841.92
2018-08-19T07:48:18.589Z,22026.24
2018-08-19T07:49:18.845Z,22394.88
2018-08-19T07:50:19.257Z,23040.00
2018-08-19T07:51:19.645Z,23592.96
2018-08-19T07:52:18.956Z,23592.96
2018-08-19T07:53:20.306Z,23408.64
2018-08-19T07:54:20.829Z,23592.96
2018-08-19T07:55:20.123Z,24330.24
2018-08-19T07:56:21.433Z,25067.52
2018-08-19T07:57:22.072Z,25251.84
2018-08-19T07:58:22.363Z,25067.52
2018-08-19T07:59:22.604Z,25251.84
2018-08-19T08:00:22.880Z,25067.52
2018-08-19T08:01:22.189Z,24883.20
2018-08-19T08:02:24.571Z,25251.84
2018-08-19T08:03:22.733Z,26173.44
2018-08-19T08:04:24.089Z,26910.72
2018-08-19T08:05:24.523Z,27463.68
2018-08-19T08:06:24.807Z,27279.36
2018-08-19T08:07:25.305Z,27463.68
2018-08-19T08:08:25.694Z,27648.00
2018-08-19T08:09:26.012Z,27648.00
2018-08-19T08:10:26.445Z,27463.68
2018-08-19T08:11:27.048Z,26726.40
2018-08-19T08:12:28.427Z,26542.08
2018-08-19T08:13:27.778Z,28016.64
2018-08-19T08:14:28.172Z,30044.16
2018-08-19T08:15:28.420Z,30597.12
2018-08-19T08:16:28.680Z,29491.20
2018-08-19T08:17:28.969Z,29122.56
2018-08-19T08:18:29.247Z,29859.84
2018-08-19T08:19:29.660Z,30228.48
2018-08-19T08:20:29.197Z,29122.56
2018-08-19T08:21:30.855Z,28385.28
2018-08-19T08:22:30.561Z,28200.96
2018-08-19T08:23:31.903Z,28385.28
2018-08-19T08:24:32.361Z,28938.24
2018-08-19T08:25:53.770Z,29122.56
2018-08-19T08:26:54.951Z,28753.92
2018-08-19T08:27:55.279Z,28753.92
2018-08-19T08:28:55.758Z,29122.56
2018-08-19T08:29:56.080Z,29122.56
2018-08-19T08:30:56.418Z,28938.24
2018-08-19T08:31:56.731Z,28753.92
2018-08-19T08:32:57.025Z,28938.24
2018-08-19T08:33:57.515Z,30044.16
2018-08-19T08:34:56.876Z,31150.08
2018-08-19T08:35:58.188Z,32071.68
2018-08-19T08:36:58.694Z,31703.04
2018-08-19T08:37:59.008Z,31703.04
2018-08-19T08:38:58.406Z,32071.68
2018-08-19T08:39:59.935Z,32993.28
2018-08-19T08:41:00.687Z,34099.20
2018-08-19T08:42:01.103Z,35205.12
2018-08-19T08:43:01.858Z,35942.40
2018-08-19T08:44:02.380Z,36679.68
2018-08-19T08:45:02.653Z,37048.32
2018-08-19T08:46:02.937Z,37232.64
2018-08-19T08:47:03.487Z,36864.00
2018-08-19T08:48:03.820Z,36679.68
2018-08-19T08:49:03.019Z,37232.64
2018-08-19T08:50:04.319Z,38154.24
2018-08-19T08:51:04.610Z,39075.84
2018-08-19T08:52:04.859Z,39997.44
2018-08-19T08:53:05.100Z,40181.76
2018-08-19T08:54:05.357Z,40366.08
2018-08-19T08:55:05.638Z,40550.40
2018-08-19T08:56:06.167Z,40734.72
2018-08-19T08:57:06.412Z,41103.36
2018-08-19T08:58:06.686Z,41472.00
2018-08-19T08:59:07.004Z,41472.00
2018-08-19T09:00:07.251Z,40919.04
2018-08-19T09:01:07.665Z,40181.76
2018-08-19T09:02:07.981Z,39813.12
2018-08-19T09:03:08.313Z,39628.80
2018-08-19T09:04:07.495Z,39997.44
2018-08-19T09:05:08.806Z,40550.40
2018-08-19T09:06:09.129Z,40919.04
2018-08-19T09:07:09.396Z,41103.36
2018-08-19T09:08:09.663Z,41287.68
2018-08-19T09:09:09.962Z,41656.32
2018-08-19T09:10:10.223Z,41656.32
2018-08-19T09:11:10.605Z,41472.00
2018-08-19T09:12:11.068Z,40550.40
2018-08-19T09:13:11.279Z,39813.12
2018-08-19T09:13:20.110Z,39997.44
2018-08-19T09:14:20.664Z,39260.16
2018-08-19T09:15:20.758Z,39075.84
2018-08-19T09:16:21.024Z,40181.76
2018-08-19T09:17:21.300Z,40550.40
2018-08-19T09:18:21.549Z,40734.72
2018-08-19T09:19:22.197Z,41103.36
2018-08-19T09:20:21.458Z,41103.36
2018-08-19T09:21:21.720Z,41840.64
2018-08-19T09:22:23.042Z,42393.60
2018-08-19T09:23:23.351Z,42762.24
2018-08-19T09:24:22.589Z,43499.52
2018-08-19T09:25:24.007Z,44236.80
2018-08-19T09:26:24.412Z,44421.12
2018-08-19T09:27:24.843Z,43868.16
2018-08-19T09:28:26.087Z,43499.52
2018-08-19T09:29:25.472Z,42762.24
2018-08-19T09:30:25.854Z,42577.92
2018-08-19T09:31:26.226Z,43315.20
2018-08-19T09:32:26.774Z,45158.40
2018-08-19T09:33:27.093Z,47185.92
2018-08-19T09:34:27.458Z,49029.12
2018-08-19T09:35:27.711Z,49766.40
2018-08-19T09:36:27.999Z,49397.76
2018-08-19T09:37:28.291Z,48291.84
2018-08-19T09:38:28.570Z,46448.64
2018-08-19T09:39:28.931Z,44605.44
2018-08-19T09:40:29.392Z,43130.88
2018-08-19T09:41:29.730Z,42762.24
2018-08-19T09:42:30.018Z,43683.84
2018-08-19T09:43:30.275Z,46264.32
2018-08-19T09:44:31.048Z,48291.84
2018-08-19T09:45:31.463Z,49766.40
2018-08-19T09:46:31.803Z,50503.68
2018-08-19T09:47:32.129Z,50135.04
2018-08-19T09:48:31.461Z,49397.76
2018-08-19T09:49:32.702Z,47185.92
2018-08-19T09:50:33.012Z,46448.64
2018-08-19T09:51:33.581Z,46264.32
2018-08-19T09:52:33.806Z,46080.00
2018-08-19T09:53:34.127Z,46448.64
2018-08-19T09:54:34.769Z,46817.28
2018-08-19T09:55:35.159Z,47554.56
2018-08-19T09:56:35.397Z,48291.84
2018-08-19T09:57:35.802Z,49029.12
2018-08-19T09:58:35.076Z,49397.76
2018-08-19T09:59:36.556Z,49766.40
2018-08-19T10:00:36.914Z,49766.40
2018-08-19T10:01:37.327Z,50135.04
2018-08-19T10:01:45.962Z,50135.04
2018-08-19T10:02:47.002Z,49766.40
2018-08-19T10:03:47.330Z,49766.40
2018-08-19T10:04:48.659Z,49397.76
2018-08-19T10:05:47.932Z,49766.40
2018-08-19T10:06:48.240Z,50503.68
2018-08-19T10:07:48.500Z,50503.68
2018-08-19T10:08:47.754Z,50872.32
2018-08-19T10:09:49.567Z,50872.32
2018-08-19T10:10:49.033Z,50135.04
2018-08-19T10:11:50.381Z,49766.40
2018-08-19T10:12:50.772Z,49029.12
2018-08-19T10:13:50.526Z,48660.48
2018-08-19T10:14:52.928Z,48291.84
2018-08-19T10:15:52.285Z,49029.12
2018-08-19T10:16:52.752Z,49766.40
2018-08-19T10:17:53.046Z,50135.04
2018-08-19T10:18:53.327Z,51240.96
2018-08-19T10:19:53.622Z,52346.88
2018-08-19T10:20:53.933Z,52346.88
2018-08-19T10:21:54.369Z,52346.88
2018-08-19T10:22:54.719Z,52715.52
2018-08-19T10:23:54.986Z,52715.52
2018-08-19T10:24:55.260Z,52715.52
2018-08-19T10:25:55.499Z,52715.52
2018-08-19T10:26:55.776Z,52346.88
2018-08-19T10:27:56.094Z,51609.60
2018-08-19T10:28:56.410Z,51240.96
2018-08-19T10:29:56.924Z,51240.96
2018-08-19T10:30:57.194Z,52346.88
2018-08-19T10:31:57.555Z,53084.16
2018-08-19T10:32:57.964Z,53084.16
2018-08-19T10:33:58.300Z,53821.44
2018-08-19T10:34:58.594Z,54190.08
2018-08-19T10:35:58.897Z,54927.36
2018-08-19T10:36:59.471Z,54927.36
2018-08-19T10:37:59.804Z,54927.36
2018-08-19T10:39:00.120Z,54558.72
2018-08-19T10:40:00.478Z,54190.08
2018-08-19T10:41:00.896Z,53821.44
2018-08-19T10:42:01.384Z,53821.44
2018-08-19T10:43:01.752Z,53821.44
2018-08-19T10:44:02.640Z,54190.08
2018-08-19T10:45:02.948Z,54190.08
2018-08-19T10:46:03.648Z,54558.72
2018-08-19T10:47:02.893Z,54558.72
2018-08-19T10:48:04.547Z,54927.36
2018-08-19T10:49:04.850Z,54927.36
2018-08-19T10:49:13.799Z,54927.36
2018-08-19T10:50:14.189Z,54927.36
2018-08-19T10:51:15.628Z,55296.00
2018-08-19T10:52:15.985Z,55296.00
2018-08-19T10:53:16.344Z,55296.00
2018-08-19T10:54:15.574Z,55296.00
2018-08-19T10:55:16.823Z,55664.64
2018-08-19T10:56:17.055Z,55664.64
2018-08-19T10:57:17.317Z,55664.64
2018-08-19T10:58:17.623Z,55664.64
2018-08-19T10:59:17.890Z,55296.00
2018-08-19T11:00:18.146Z,55296.00
2018-08-19T11:01:18.847Z,55296.00
2018-08-19T11:02:19.106Z,54927.36
2018-08-19T11:03:19.695Z,54927.36
2018-08-19T11:04:20.043Z,55296.00
2018-08-19T11:05:20.323Z,55664.64
2018-08-19T11:06:20.545Z,55664.64
2018-08-19T11:07:20.821Z,55296.00
2018-08-19T11:08:21.109Z,55296.00
2018-08-19T11:09:21.705Z,55664.64
2018-08-19T11:10:22.133Z,55664.64
2018-08-19T11:11:22.757Z,55664.64
2018-08-19T11:12:23.025Z,56033.28
2018-08-19T11:13:23.378Z,56033.28
2018-08-19T11:14:22.642Z,56401.92
2018-08-19T11:15:23.910Z,54927.36
2018-08-19T11:16:24.183Z,55664.64
2018-08-19T11:17:24.406Z,55296.00
2018-08-19T11:18:24.689Z,55664.64
2018-08-19T11:19:25.228Z,56770.56
2018-08-19T11:20:25.494Z,56770.56
2018-08-19T11:21:25.753Z,56770.56
2018-08-19T11:22:26.118Z,56770.56
2018-08-19T11:23:25.463Z,58245.12
2018-08-19T11:24:28.170Z,57139.20
2018-08-19T11:25:27.446Z,57139.20
2018-08-19T11:26:27.774Z,57139.20
2018-08-19T11:27:28.313Z,57507.84
2018-08-19T11:28:27.527Z,57139.20
2018-08-19T11:29:28.793Z,57139.20
2018-08-19T11:30:29.059Z,57507.84
2018-08-19T11:31:29.552Z,57139.20
2018-08-19T11:32:29.080Z,56770.56
2018-08-19T11:33:30.691Z,56770.56
2018-08-19T11:34:30.979Z,57507.84
2018-08-19T11:35:31.316Z,56770.56
2018-08-19T11:36:31.629Z,56770.56
2018-08-19T11:37:31.947Z,57139.20
2018-08-19T11:38:32.188Z,57876.48
2018-08-19T11:38:46.017Z,57876.48
2018-08-19T11:39:43.745Z,58613.76
2018-08-19T11:40:44.528Z,58613.76
2018-08-19T11:41:45.800Z,58982.40
2018-08-19T11:42:46.219Z,58982.40
2018-08-19T11:43:46.718Z,58613.76
2018-08-19T11:44:47.060Z,58613.76
2018-08-19T11:45:47.732Z,57876.48
2018-08-19T11:46:47.957Z,57507.84
2018-08-19T11:47:49.590Z,57139.20
2018-08-19T11:48:48.898Z,56770.56
2018-08-19T11:49:48.173Z,56401.92
2018-08-19T11:50:49.885Z,56401.92
2018-08-19T11:51:50.191Z,56770.56
2018-08-19T11:52:50.754Z,56770.56
2018-08-19T11:53:50.560Z,57139.20
2018-08-19T11:54:51.906Z,57139.20
2018-08-19T11:55:52.201Z,56770.56
2018-08-19T11:56:52.431Z,57139.20
2018-08-19T11:57:52.860Z,57139.20
2018-08-19T11:58:53.442Z,56770.56
2018-08-19T11:59:53.905Z,56770.56
2018-08-19T12:00:54.199Z,56401.92
2018-08-19T12:01:54.523Z,56401.92
2018-08-19T12:02:53.792Z,56033.28
2018-08-19T12:03:55.117Z,55664.64
2018-08-19T12:04:55.839Z,55664.64
2018-08-19T12:05:56.363Z,56033.28
2018-08-19T12:06:56.586Z,56033.28
2018-08-19T12:07:56.997Z,56033.28
2018-08-19T12:08:57.319Z,56033.28
2018-08-19T12:09:57.724Z,56033.28
2018-08-19T12:10:57.996Z,56401.92
2018-08-19T12:11:58.330Z,56401.92
2018-08-19T12:12:58.612Z,56401.92